»·PEaware :: AAL4600 KELP-KSAN

AAL4600 :: KELP-KSAN

FLIGHT INFORMATION

Flight Status: Arrived
Operator:
American Airlines
More flights by this operator :: More flights under this callsign
Pilot: Skye D. (10623)
Aircraft: AIRBUS A319
(A319)
More flights by this aircraft type
Origin: KELP El Paso Intl
United States
Destination: KSAN San Diego Intl-Lindbergh
United States
More flights between these airports :: More routes between these airports
Route: +ATKNN5 FLOGS SSO J50 GBN J2 HOGGZ LUCKI1
File this flight plan on PilotEdge
Remarks:
Altitude:
(Current/Filed)
38,000ft
Speed:
(Current/Filed)
451kts
Departed: 06-Oct-18 11:29 AM
Arrived: 06-Oct-18 01:09 PM
Distance/Time
Traveled:
552nm/1:39
Distance/Time
To Go:
Arrived

Flight Plot

Page will automatically refresh every two minutes.

Flight plan parsing failed; only flown route is shown


Map Options




Map Legend


Flown Route
Filed Route
Departure Airport
Arrival Airport
Navaid (VOR, NDB)
Fix

Horizontal Profiles

Position Reports

Time Latitude Longitude Heading Altitude Ground
Speed
06-Oct-18 10:57 31.800111 -106.392552 347 3929ft 0kts
06-Oct-18 10:58 31.800111 -106.392552 347 3929ft 0kts
06-Oct-18 10:59 31.800111 -106.392552 347 3929ft 0kts
06-Oct-18 11:00 31.800111 -106.392552 347 3929ft 0kts
06-Oct-18 11:01 31.800111 -106.392552 347 3929ft 0kts
06-Oct-18 11:02 31.800111 -106.392552 347 3929ft 0kts
06-Oct-18 11:03 31.800111 -106.392552 347 3929ft 0kts
06-Oct-18 11:04 31.800111 -106.392552 347 3929ft 0kts
06-Oct-18 11:05 31.800111 -106.392552 347 3929ft 0kts
06-Oct-18 11:06 31.800111 -106.392552 347 3929ft 0kts
06-Oct-18 11:07 31.800111 -106.392552 347 3929ft 0kts
06-Oct-18 11:08 31.800111 -106.392552 347 3929ft 0kts
06-Oct-18 11:09 31.800111 -106.392552 347 3929ft 0kts
06-Oct-18 11:10 31.800111 -106.392552 347 3929ft 0kts
06-Oct-18 11:11 31.800111 -106.392552 347 3929ft 0kts
06-Oct-18 11:12 31.800111 -106.392552 347 3929ft 0kts
06-Oct-18 11:13 31.800111 -106.392552 347 3929ft 0kts
06-Oct-18 11:14 31.800111 -106.392552 347 3929ft 0kts
06-Oct-18 11:15 31.800111 -106.392552 347 3929ft 0kts
06-Oct-18 11:16 31.800111 -106.392552 347 3929ft 0kts
06-Oct-18 11:17 31.800111 -106.392552 347 3929ft 0kts
06-Oct-18 11:18 31.799757 -106.392459 347 3929ft 5kts
06-Oct-18 11:19 31.799405 -106.392763 82 3929ft 0kts
06-Oct-18 11:20 31.799405 -106.392763 82 3929ft 0kts
06-Oct-18 11:21 31.799408 -106.392744 82 3929ft 0kts
06-Oct-18 11:22 31.799692 -106.391726 59 3929ft 6kts
06-Oct-18 11:23 31.799897 -106.390196 91 3930ft 16kts
06-Oct-18 11:24 31.799894 -106.385027 88 3933ft 21kts
06-Oct-18 11:25 31.799910 -106.379563 91 3940ft 17kts
06-Oct-18 11:26 31.799623 -106.373169 93 3949ft 30kts
06-Oct-18 11:27 31.799242 -106.366333 92 3954ft 18kts
06-Oct-18 11:28 31.799029 -106.360441 83 3952ft 17kts
06-Oct-18 11:29 31.799469 -106.359871 11 3952ft 0kts
06-Oct-18 11:30 31.799639 -106.359838 7 3952ft 3kts
06-Oct-18 11:31 31.800733 -106.362117 272 3953ft 49kts
06-Oct-18 11:32 31.802878 -106.397389 268 4821ft 168kts
06-Oct-18 11:33 31.784578 -106.438301 239 6734ft 200kts
06-Oct-18 11:34 31.762901 -106.499938 274 8639ft 273kts
06-Oct-18 11:35 31.802101 -106.579459 292 11194ft 321kts
06-Oct-18 11:36 31.824395 -106.680708 278 12266ft 386kts
06-Oct-18 11:37 31.844005 -106.785883 278 14041ft 407kts
06-Oct-18 11:38 31.863896 -106.896274 278 16077ft 413kts
06-Oct-18 11:39 31.885601 -107.017276 279 17935ft 422kts
06-Oct-18 11:40 31.905237 -107.126900 280 19384ft 430kts
06-Oct-18 11:41 31.926308 -107.245143 280 20750ft 437kts
06-Oct-18 11:42 31.947702 -107.365982 280 22001ft 443kts
06-Oct-18 11:43 31.972677 -107.507776 281 23232ft 450kts
06-Oct-18 11:44 31.997935 -107.652001 280 24713ft 449kts
06-Oct-18 11:45 32.023108 -107.793752 281 26395ft 444kts
06-Oct-18 11:46 32.047446 -107.934183 281 28114ft 437kts
06-Oct-18 11:47 32.071173 -108.072554 281 29693ft 433kts
06-Oct-18 11:48 32.094746 -108.210764 281 31220ft 428kts
06-Oct-18 11:49 32.117991 -108.345986 280 32722ft 421kts
06-Oct-18 11:50 32.140724 -108.480270 279 33974ft 418kts
06-Oct-18 11:51 32.163014 -108.613830 279 35090ft 416kts
06-Oct-18 11:52 32.185357 -108.746341 278 36102ft 414kts
06-Oct-18 11:53 32.207301 -108.878561 277 37027ft 411kts
06-Oct-18 11:54 32.228777 -109.010015 277 37745ft 412kts
06-Oct-18 11:55 32.250223 -109.142095 277 38053ft 412kts
06-Oct-18 11:56 32.272040 -109.273601 279 37998ft 412kts
06-Oct-18 11:57 32.303289 -109.403818 281 37978ft 412kts
06-Oct-18 11:58 32.334769 -109.533749 281 37972ft 412kts
06-Oct-18 11:59 32.366001 -109.663160 281 37973ft 412kts
06-Oct-18 12:00 32.397605 -109.792520 281 37953ft 411kts
06-Oct-18 12:01 32.428460 -109.921113 281 37945ft 411kts
06-Oct-18 12:02 32.458204 -110.046072 281 37943ft 411kts
06-Oct-18 12:03 32.488589 -110.174390 281 37942ft 411kts
06-Oct-18 12:04 32.518663 -110.302031 281 37947ft 409kts
06-Oct-18 12:05 32.549091 -110.431543 281 37969ft 409kts
06-Oct-18 12:06 32.579336 -110.560698 281 37976ft 409kts
06-Oct-18 12:07 32.609324 -110.690388 280 37978ft 409kts
06-Oct-18 12:08 32.639584 -110.820001 281 37968ft 407kts
06-Oct-18 12:09 32.669281 -110.949084 280 37943ft 407kts
06-Oct-18 12:10 32.698534 -111.077131 280 37931ft 407kts
06-Oct-18 12:11 32.727971 -111.206629 280 37926ft 407kts
06-Oct-18 12:12 32.757243 -111.335958 280 37923ft 404kts
06-Oct-18 12:13 32.786122 -111.464051 280 37917ft 403kts
06-Oct-18 12:14 32.814996 -111.592396 280 37916ft 403kts
06-Oct-18 12:15 32.843753 -111.720547 280 37910ft 403kts
06-Oct-18 12:16 32.872276 -111.848285 280 37900ft 400kts
06-Oct-18 12:17 32.891726 -111.977550 273 37968ft 397kts
06-Oct-18 12:18 32.903824 -112.106094 273 38059ft 397kts
06-Oct-18 12:19 32.915892 -112.236300 273 38087ft 396kts
06-Oct-18 12:20 32.927783 -112.365997 273 38095ft 395kts
06-Oct-18 12:21 32.939628 -112.495472 273 38006ft 394kts
06-Oct-18 12:22 32.950076 -112.625027 270 37910ft 394kts
06-Oct-18 12:23 32.944387 -112.754322 260 37884ft 392kts
06-Oct-18 12:24 32.927529 -112.881925 260 37880ft 391kts
06-Oct-18 12:25 32.910531 -113.007453 260 37879ft 391kts
06-Oct-18 12:26 32.893099 -113.134423 260 37879ft 391kts
06-Oct-18 12:27 32.875409 -113.262248 260 37879ft 391kts
06-Oct-18 12:28 32.857728 -113.389160 260 37879ft 391kts
06-Oct-18 12:29 32.839931 -113.516470 260 37879ft 391kts
06-Oct-18 12:30 32.822049 -113.643993 260 37915ft 392kts
06-Oct-18 12:31 32.804363 -113.770834 260 38010ft 391kts
06-Oct-18 12:32 32.786175 -113.897947 260 38041ft 391kts
06-Oct-18 12:33 32.774887 -114.025701 268 38050ft 391kts
06-Oct-18 12:34 32.777432 -114.152607 271 38052ft 392kts
06-Oct-18 12:35 32.782010 -114.258916 271 38052ft 392kts
06-Oct-18 12:36 32.791764 -114.384243 278 38052ft 393kts
06-Oct-18 12:37 32.820608 -114.509347 285 38052ft 395kts
06-Oct-18 12:38 32.858994 -114.653594 281 38008ft 393kts
06-Oct-18 12:39 32.874068 -114.759313 273 38014ft 392kts
06-Oct-18 12:40 32.874448 -114.909321 268 37929ft 391kts
06-Oct-18 12:41 32.872218 -115.013078 268 37625ft 394kts
06-Oct-18 12:42 32.868937 -115.154356 269 34377ft 393kts
06-Oct-18 12:43 32.866607 -115.251723 269 32037ft 396kts
06-Oct-18 12:44 32.858060 -115.382466 263 28626ft 406kts
06-Oct-18 12:45 32.839376 -115.515142 261 25217ft 406kts
06-Oct-18 12:46 32.817990 -115.643869 261 21498ft 417kts
06-Oct-18 12:47 32.797204 -115.773040 261 19257ft 391kts
06-Oct-18 12:48 32.781318 -115.894870 266 17493ft 376kts
06-Oct-18 12:49 32.772226 -116.015055 266 16073ft 369kts
06-Oct-18 12:50 32.763301 -116.132770 266 14718ft 365kts
06-Oct-18 12:51 32.754430 -116.248906 266 13291ft 350kts
06-Oct-18 12:52 32.745330 -116.365680 266 11632ft 307kts
06-Oct-18 12:53 32.739834 -116.436383 266 10611ft 270kts
06-Oct-18 12:54 32.734572 -116.503296 266 10194ft 223kts
06-Oct-18 12:55 32.729117 -116.560106 265 9442ft 221kts
06-Oct-18 12:56 32.724251 -116.610267 265 8729ft 218kts
06-Oct-18 12:57 32.718928 -116.666426 267 7844ft 217kts
06-Oct-18 12:58 32.714172 -116.730567 267 6496ft 216kts
06-Oct-18 12:59 32.709510 -116.789779 267 6052ft 213kts
06-Oct-18 13:00 32.701150 -116.837352 254 5666ft 189kts
06-Oct-18 13:01 32.688763 -116.877040 254 5060ft 185kts
06-Oct-18 13:02 32.676429 -116.918654 255 4348ft 185kts
06-Oct-18 13:03 32.677306 -116.957788 288 3760ft 179kts
06-Oct-18 13:04 32.686652 -116.996114 288 3318ft 176kts
06-Oct-18 13:05 32.696533 -117.036876 286 2694ft 173kts
06-Oct-18 13:06 32.706465 -117.077950 284 2077ft 173kts
06-Oct-18 13:07 32.715401 -117.114384 283 1353ft 145kts
06-Oct-18 13:08 32.722798 -117.144543 280 739ft 131kts
06-Oct-18 13:09 32.730293 -117.176346 281 153ft 135kts
06-Oct-18 13:10 32.735814 -117.199092 281 21ft 41kts
06-Oct-18 13:11 32.735782 -117.202193 201 19ft 0kts
06-Oct-18 13:12 32.735065 -117.202404 192 19ft 13kts
06-Oct-18 13:13 32.732575 -117.202759 200 19ft 5kts
06-Oct-18 13:14 32.732300 -117.202879 200 19ft 0kts
06-Oct-18 13:15 32.732300 -117.202879 200 19ft 0kts

Navigation Log

Ident Type
Flight plan parsing failed, navigation log unavailable